createdAt,value
2022-08-24T00:01:56.548Z,9.52
2022-08-24T00:04:24.975Z,3.80
2022-08-24T00:06:53.020Z,5.90
2022-08-24T00:09:21.135Z,7.55
2022-08-24T00:11:49.315Z,4.97
2022-08-24T00:14:17.807Z,5.35
2022-08-24T00:16:47.711Z,6.50
2022-08-24T00:19:16.238Z,4.70
2022-08-24T00:21:44.312Z,5.85
2022-08-24T00:24:12.487Z,7.20
2022-08-24T00:26:40.514Z,4.40
2022-08-24T00:29:08.592Z,5.03
2022-08-24T00:31:36.866Z,5.47
2022-08-24T00:34:06.791Z,5.65
2022-08-24T00:36:35.349Z,4.75
2022-08-24T00:39:04.764Z,7.15
2022-08-24T00:41:33.130Z,4.68
2022-08-24T00:44:03.114Z,6.05
2022-08-24T00:46:38.900Z,5.55
2022-08-24T00:49:14.678Z,5.22
2022-08-24T00:51:50.401Z,4.65
2022-08-24T00:54:19.919Z,5.57
2022-08-24T00:56:53.293Z,6.22
2022-08-24T00:59:25.786Z,6.47
2022-08-24T01:01:57.553Z,5.80
2022-08-24T01:04:36.359Z,3.95
2022-08-24T01:07:04.677Z,4.60
2022-08-24T01:09:32.799Z,4.75
2022-08-24T01:12:00.968Z,5.07
2022-08-24T01:14:29.762Z,4.20
2022-08-24T01:17:15.590Z,5.97
2022-08-24T01:19:50.199Z,5.28
2022-08-24T01:22:33.951Z,6.50
2022-08-24T01:25:03.477Z,4.15
2022-08-24T01:27:31.966Z,6.05
2022-08-24T01:30:02.844Z,5.07
2022-08-24T01:32:31.231Z,3.92
2022-08-24T01:34:59.781Z,3.65
2022-08-24T01:37:27.903Z,5.15
2022-08-24T01:39:59.148Z,5.18
2022-08-24T01:42:29.950Z,4.05
2022-08-24T01:44:58.096Z,5.72
2022-08-24T01:47:26.138Z,4.55
2022-08-24T01:49:54.234Z,6.47
2022-08-24T01:52:25.209Z,3.65
2022-08-24T01:54:53.490Z,3.80
2022-08-24T01:57:25.092Z,4.32
2022-08-24T01:59:54.689Z,5.53
2022-08-24T02:02:28.353Z,5.85
2022-08-24T02:04:56.588Z,8.88
2022-08-24T02:07:24.967Z,6.00
2022-08-24T02:13:42.516Z,4.78
2022-08-24T02:16:12.031Z,8.73
2022-08-24T02:18:41.174Z,6.07
2022-08-24T02:21:09.749Z,4.50
2022-08-24T02:23:39.223Z,5.20
2022-08-24T02:26:09.510Z,4.22
2022-08-24T02:28:39.052Z,5.60
2022-08-24T02:31:08.761Z,5.95
2022-08-24T02:33:39.047Z,5.95
2022-08-24T02:36:21.851Z,6.63
2022-08-24T02:38:54.931Z,4.60
2022-08-24T02:41:25.957Z,6.63
2022-08-24T02:43:54.568Z,7.32
2022-08-24T02:46:24.225Z,3.78
2022-08-24T02:48:59.895Z,3.80
2022-08-24T02:51:44.638Z,4.93
2022-08-24T02:54:17.376Z,6.28
2022-08-24T02:56:45.458Z,4.68
2022-08-24T02:59:14.042Z,4.43
2022-08-24T03:01:42.249Z,3.55
2022-08-24T03:04:12.066Z,6.28
2022-08-24T03:06:40.299Z,3.60
2022-08-24T03:09:09.126Z,7.85
2022-08-24T03:11:37.416Z,5.45
2022-08-24T03:14:05.916Z,7.95
2022-08-24T03:16:34.078Z,4.70
2022-08-24T03:19:02.567Z,5.22
2022-08-24T03:21:33.236Z,6.72
2022-08-24T03:24:01.270Z,6.90
2022-08-24T03:26:29.546Z,4.13
2022-08-24T03:28:57.626Z,5.13
2022-08-24T03:31:27.517Z,4.65
2022-08-24T03:33:55.580Z,4.32
2022-08-24T03:36:23.626Z,6.10
2022-08-24T03:38:53.079Z,4.57
2022-08-24T03:41:21.165Z,5.93
2022-08-24T03:43:49.644Z,5.53
2022-08-24T03:46:20.783Z,6.68
2022-08-24T03:48:49.924Z,5.18
2022-08-24T03:51:19.896Z,5.45
2022-08-24T03:53:48.106Z,6.90
2022-08-24T03:56:18.547Z,6.05
2022-08-24T03:58:47.881Z,5.35
2022-08-24T04:01:17.128Z,4.82
2022-08-24T04:03:46.900Z,4.93
2022-08-24T04:06:17.039Z,3.85
2022-08-24T04:08:45.572Z,3.35
2022-08-24T04:11:15.325Z,4.07
2022-08-24T04:13:45.343Z,5.18
2022-08-24T04:16:15.975Z,9.05
2022-08-24T04:18:44.596Z,4.35
2022-08-24T04:21:20.530Z,6.10
2022-08-24T04:23:49.141Z,7.05
2022-08-24T04:26:24.335Z,4.70
2022-08-24T04:29:10.168Z,5.80
2022-08-24T04:31:38.581Z,6.30
2022-08-24T04:34:06.709Z,6.90
2022-08-24T04:36:35.507Z,5.50
2022-08-24T04:39:06.053Z,4.88
2022-08-24T04:41:34.563Z,6.80
2022-08-24T04:44:04.075Z,5.20
2022-08-24T04:46:33.533Z,4.90
2022-08-24T04:49:01.703Z,7.28
2022-08-24T04:51:30.633Z,6.00
2022-08-24T04:54:05.030Z,6.75
2022-08-24T04:56:33.282Z,9.20
2022-08-24T04:59:02.662Z,6.78
2022-08-24T05:01:33.778Z,6.20
2022-08-24T05:04:02.751Z,4.95
2022-08-24T05:06:33.932Z,8.10
2022-08-24T05:09:02.801Z,6.88
2022-08-24T05:11:31.404Z,6.90
2022-08-24T05:14:00.325Z,14.05
2022-08-24T05:16:31.694Z,11.05
2022-08-24T05:19:02.947Z,13.43
2022-08-24T05:21:31.311Z,20.25
2022-08-24T05:23:59.473Z,17.73
2022-08-24T05:26:29.129Z,25.15
2022-08-24T05:28:58.966Z,19.10
2022-08-24T05:31:29.048Z,15.45
2022-08-24T05:33:57.880Z,14.98
2022-08-24T05:36:29.270Z,16.77
2022-08-24T05:38:59.002Z,15.05
2022-08-24T05:41:27.520Z,16.98
2022-08-24T05:43:55.965Z,16.50
2022-08-24T05:46:24.105Z,15.90
2022-08-24T05:48:53.183Z,18.48
2022-08-24T05:51:22.398Z,18.63
2022-08-24T05:53:51.939Z,22.27
2022-08-24T05:56:21.428Z,12.00
2022-08-24T05:58:49.963Z,14.73
2022-08-24T06:01:20.990Z,11.68
2022-08-24T06:03:50.160Z,11.90
2022-08-24T06:06:19.430Z,11.18
2022-08-24T06:08:49.416Z,12.75
2022-08-24T06:11:29.870Z,13.02
2022-08-24T06:14:01.516Z,16.00
2022-08-24T06:16:30.143Z,17.30
2022-08-24T06:18:58.433Z,15.85
2022-08-24T06:21:28.649Z,13.00
2022-08-24T06:23:57.295Z,12.25
2022-08-24T06:26:45.210Z,15.15
2022-08-24T06:29:19.342Z,12.93
2022-08-24T06:31:54.703Z,17.10
2022-08-24T06:34:26.253Z,12.15
2022-08-24T06:36:54.477Z,17.67
2022-08-24T06:39:22.587Z,13.18
2022-08-24T06:41:52.154Z,11.88
2022-08-24T06:44:20.174Z,19.92
2022-08-24T06:46:48.266Z,22.42
2022-08-24T06:49:16.497Z,14.07
2022-08-24T06:51:48.655Z,18.33
2022-08-24T06:54:19.225Z,16.27
2022-08-24T06:56:47.414Z,17.10
2022-08-24T06:59:16.876Z,18.13
2022-08-24T07:01:44.975Z,16.40
2022-08-24T07:04:13.041Z,28.98
2022-08-24T07:06:41.125Z,18.23
2022-08-24T07:09:09.207Z,37.97
2022-08-24T07:11:37.402Z,14.95
2022-08-24T07:14:06.739Z,15.48
2022-08-24T07:16:36.558Z,22.35
2022-08-24T07:19:06.423Z,15.52
2022-08-24T07:21:34.583Z,19.75
2022-08-24T07:24:04.237Z,16.52
2022-08-24T07:26:33.039Z,16.75
2022-08-24T07:29:06.276Z,19.20
2022-08-24T07:31:36.826Z,21.23
2022-08-24T07:34:05.615Z,15.38
2022-08-24T07:36:33.969Z,16.77
2022-08-24T07:39:02.709Z,19.83
2022-08-24T07:41:56.521Z,18.88
2022-08-24T07:44:20.076Z,23.98
2022-08-24T07:46:49.550Z,19.45
2022-08-24T07:49:36.064Z,18.63
2022-08-24T07:52:05.874Z,13.15
2022-08-24T07:54:34.504Z,15.35
2022-08-24T07:57:04.500Z,15.25
2022-08-24T07:59:32.514Z,17.20
2022-08-24T08:02:03.100Z,19.20
2022-08-24T08:04:31.983Z,19.15
2022-08-24T08:07:01.521Z,16.27
2022-08-24T08:09:30.306Z,20.17
2022-08-24T08:11:58.327Z,13.20
2022-08-24T08:14:26.401Z,21.02
2022-08-24T08:16:54.826Z,14.93
2022-08-24T08:19:24.229Z,15.75
2022-08-24T08:22:16.566Z,14.27
2022-08-24T08:24:44.887Z,14.63
2022-08-24T08:27:15.088Z,21.35
2022-08-24T08:29:43.393Z,21.67
2022-08-24T08:32:14.734Z,20.00
2022-08-24T08:34:44.576Z,24.05
2022-08-24T08:37:14.279Z,17.58
2022-08-24T08:39:42.482Z,17.67
2022-08-24T08:42:28.931Z,20.08
2022-08-24T08:45:09.937Z,17.25
2022-08-24T08:48:26.050Z,14.65
2022-08-24T08:51:20.133Z,17.70
2022-08-24T08:54:22.534Z,13.90
2022-08-24T08:57:12.107Z,15.43
2022-08-24T08:59:57.321Z,23.08
2022-08-24T09:02:45.218Z,14.35
2022-08-24T09:05:44.043Z,15.38
2022-08-24T09:08:21.657Z,16.20
2022-08-24T09:11:01.901Z,14.93
2022-08-24T09:13:59.679Z,17.33
2022-08-24T09:16:39.999Z,19.33
2022-08-24T09:19:31.929Z,16.58
2022-08-24T09:22:10.478Z,15.60
2022-08-24T09:25:08.448Z,14.35
2022-08-24T09:27:50.219Z,16.33
2022-08-24T09:30:23.798Z,14.00
2022-08-24T09:33:09.490Z,12.10
2022-08-24T09:36:10.973Z,13.43
2022-08-24T09:39:05.726Z,13.20
2022-08-24T09:42:07.053Z,12.73
2022-08-24T09:44:56.939Z,13.48
2022-08-24T09:47:46.241Z,11.82
2022-08-24T09:50:49.691Z,10.98
2022-08-24T09:53:46.628Z,13.35
2022-08-24T09:56:26.647Z,13.45
2022-08-24T09:59:07.141Z,12.65
2022-08-24T10:01:44.530Z,12.77
2022-08-24T10:04:27.139Z,11.98
2022-08-24T10:07:09.159Z,11.48
2022-08-24T10:10:02.963Z,12.60
2022-08-24T10:12:52.905Z,16.63
2022-08-24T10:15:29.325Z,11.63
2022-08-24T10:18:20.425Z,13.02
2022-08-24T10:21:21.533Z,13.25
2022-08-24T10:24:13.275Z,13.73
2022-08-24T10:26:58.793Z,14.63
2022-08-24T10:29:43.746Z,10.95
2022-08-24T10:32:26.204Z,11.85
2022-08-24T10:35:05.911Z,12.35
2022-08-24T10:38:25.133Z,14.63
2022-08-24T10:41:10.684Z,12.35
2022-08-24T10:44:00.674Z,11.32
2022-08-24T10:46:45.867Z,12.00
2022-08-24T10:49:52.680Z,12.05
2022-08-24T10:52:50.007Z,12.25
2022-08-24T10:55:24.841Z,10.68
2022-08-24T10:58:15.200Z,10.25
2022-08-24T11:00:43.680Z,11.65
2022-08-24T11:03:14.766Z,11.05
2022-08-24T11:05:47.924Z,8.63
2022-08-24T11:08:24.065Z,12.05
2022-08-24T11:11:08.323Z,11.43
2022-08-24T11:13:37.634Z,8.07
2022-08-24T11:16:07.389Z,13.07
2022-08-24T11:18:50.365Z,11.57
2022-08-24T11:21:34.898Z,10.20
2022-08-24T11:24:08.759Z,11.40
2022-08-24T11:26:53.645Z,10.80
2022-08-24T11:29:23.211Z,8.48
2022-08-24T11:31:53.510Z,11.00
2022-08-24T11:34:33.362Z,9.23
2022-08-24T11:37:01.435Z,11.68
2022-08-24T11:39:35.640Z,6.57
2022-08-24T11:42:12.954Z,12.60
2022-08-24T11:44:46.456Z,8.43
2022-08-24T11:47:39.326Z,11.18
2022-08-24T11:50:19.345Z,9.80
2022-08-24T11:53:00.832Z,10.27
2022-08-24T11:55:46.679Z,7.57
2022-08-24T11:58:19.725Z,9.55
2022-08-24T12:00:54.985Z,7.57
2022-08-24T12:03:52.320Z,10.13
2022-08-24T12:06:32.296Z,11.05
2022-08-24T12:09:06.749Z,8.40
2022-08-24T12:11:44.410Z,9.35
2022-08-24T12:14:21.968Z,6.85
2022-08-24T12:16:56.654Z,10.95
2022-08-24T12:19:29.766Z,8.77
2022-08-24T12:22:01.725Z,7.85
2022-08-24T12:24:33.561Z,10.07
2022-08-24T12:27:10.620Z,9.80
2022-08-24T12:29:43.223Z,8.18
2022-08-24T12:32:16.115Z,10.40
2022-08-24T12:34:56.813Z,6.50
2022-08-24T12:37:31.983Z,10.18
2022-08-24T12:40:08.787Z,9.73
2022-08-24T12:42:51.779Z,8.20
2022-08-24T12:45:22.263Z,8.57
2022-08-24T12:47:55.937Z,10.63
2022-08-24T12:50:29.650Z,9.10
2022-08-24T12:53:33.217Z,10.13
2022-08-24T12:56:21.000Z,8.18
2022-08-24T12:59:02.861Z,11.93
2022-08-24T13:01:35.825Z,12.13
2022-08-24T13:04:08.083Z,13.45
2022-08-24T13:06:43.936Z,7.53
2022-08-24T13:09:18.129Z,9.52
2022-08-24T13:11:46.396Z,9.48
2022-08-24T13:14:21.875Z,10.52
2022-08-24T13:17:07.613Z,11.73
2022-08-24T13:19:39.749Z,10.73
2022-08-24T13:22:54.077Z,9.02
2022-08-24T13:25:42.381Z,13.73
2022-08-24T13:28:29.387Z,10.60
2022-08-24T13:31:11.173Z,9.07
2022-08-24T13:33:43.790Z,9.13
2022-08-24T13:36:48.202Z,8.57
2022-08-24T13:39:44.581Z,11.65
2022-08-24T13:42:28.734Z,10.63
2022-08-24T13:45:25.838Z,10.35
2022-08-24T13:48:04.199Z,11.57
2022-08-24T13:50:39.734Z,7.40
2022-08-24T13:53:36.416Z,9.77
2022-08-24T13:56:32.380Z,10.50
2022-08-24T13:59:09.754Z,11.68
2022-08-24T14:01:51.033Z,7.63
2022-08-24T14:04:48.942Z,9.77
2022-08-24T14:07:21.643Z,10.40
2022-08-24T14:10:08.084Z,9.93
2022-08-24T14:13:02.448Z,7.78
2022-08-24T14:16:10.474Z,10.38
2022-08-24T14:18:51.636Z,9.48
2022-08-24T14:21:25.600Z,8.35
2022-08-24T14:24:01.401Z,12.07
2022-08-24T14:27:06.167Z,9.30
2022-08-24T14:29:42.774Z,10.52
2022-08-24T14:32:45.238Z,11.15
2022-08-24T14:35:26.417Z,12.40
2022-08-24T14:38:06.539Z,8.93
2022-08-24T14:40:54.290Z,9.52
2022-08-24T14:43:31.546Z,13.77
2022-08-24T14:46:09.178Z,9.90
2022-08-24T14:48:47.411Z,8.80
2022-08-24T14:51:31.755Z,9.10
2022-08-24T14:54:10.050Z,12.10
2022-08-24T14:56:54.403Z,10.38
2022-08-24T14:59:33.959Z,12.63
2022-08-24T15:02:39.690Z,10.50
2022-08-24T15:05:17.603Z,12.20
2022-08-24T15:07:55.591Z,14.63
2022-08-24T15:10:28.905Z,12.95
2022-08-24T15:13:03.633Z,12.70
2022-08-24T15:15:39.435Z,10.70
2022-08-24T15:18:21.751Z,14.32
2022-08-24T15:21:09.721Z,13.63
2022-08-24T15:23:58.404Z,11.85
2022-08-24T15:26:42.543Z,11.27
2022-08-24T15:29:15.194Z,14.18
2022-08-24T15:31:44.041Z,11.82
2022-08-24T15:34:12.379Z,12.05
2022-08-24T15:36:40.427Z,11.52
2022-08-24T15:39:08.531Z,11.93
2022-08-24T15:41:42.985Z,10.38
2022-08-24T15:44:23.393Z,10.25
2022-08-24T15:46:56.247Z,11.80
2022-08-24T15:49:28.799Z,14.40
2022-08-24T15:52:00.329Z,10.68
2022-08-24T15:54:35.856Z,10.75
2022-08-24T15:57:11.704Z,15.65
2022-08-24T15:59:49.990Z,11.55
2022-08-24T16:02:28.618Z,8.88
2022-08-24T16:05:14.405Z,9.30
2022-08-24T16:08:10.495Z,12.50
2022-08-24T16:10:41.905Z,10.40
2022-08-24T16:13:28.213Z,10.60
2022-08-24T16:16:03.345Z,12.48
2022-08-24T16:18:47.403Z,12.38
2022-08-24T16:21:21.018Z,14.05
2022-08-24T16:23:56.439Z,9.95
2022-08-24T16:26:27.170Z,10.48
2022-08-24T16:28:57.595Z,20.35
2022-08-24T16:31:47.937Z,14.57
2022-08-24T16:34:23.411Z,10.15
2022-08-24T16:36:51.549Z,16.50
2022-08-24T16:39:19.639Z,20.10
2022-08-24T16:41:48.019Z,46.42
2022-08-24T16:44:17.480Z,18.42
2022-08-24T16:46:48.020Z,15.82
2022-08-24T16:49:16.510Z,14.18
2022-08-24T16:51:45.412Z,12.73
2022-08-24T16:54:13.735Z,17.60
2022-08-24T16:56:42.572Z,13.32
2022-08-24T16:59:11.911Z,13.13
2022-08-24T17:01:41.366Z,12.98
2022-08-24T17:04:09.484Z,14.52
2022-08-24T17:06:37.881Z,13.15
2022-08-24T17:09:06.060Z,11.80
2022-08-24T17:11:37.121Z,10.07
2022-08-24T17:14:05.571Z,12.85
2022-08-24T17:16:33.811Z,11.95
2022-08-24T17:19:06.075Z,13.07
2022-08-24T17:21:34.550Z,11.70
2022-08-24T17:24:02.562Z,11.68
2022-08-24T17:26:33.165Z,10.85
2022-08-24T17:29:06.028Z,11.80
2022-08-24T17:31:34.120Z,15.45
2022-08-24T17:34:03.532Z,13.60
2022-08-24T17:36:32.311Z,11.60
2022-08-24T17:39:01.332Z,12.00
2022-08-24T17:41:29.440Z,11.85
2022-08-24T17:43:58.454Z,11.75
2022-08-24T17:46:26.462Z,15.05
2022-08-24T17:48:54.499Z,12.02
2022-08-24T17:51:23.933Z,9.35
2022-08-24T17:53:52.085Z,13.55
2022-08-24T17:56:20.506Z,12.45
2022-08-24T17:59:06.142Z,10.43
2022-08-24T18:01:34.270Z,16.42
2022-08-24T18:04:02.848Z,16.33
2022-08-24T18:06:33.273Z,10.57
2022-08-24T18:09:05.077Z,9.68
2022-08-24T18:11:33.384Z,11.35
2022-08-24T18:14:02.395Z,13.77
2022-08-24T18:16:30.581Z,11.35
2022-08-24T18:18:58.678Z,11.10
2022-08-24T18:21:26.871Z,14.13
2022-08-24T18:23:56.287Z,11.63
2022-08-24T18:26:28.059Z,13.82
2022-08-24T18:28:58.238Z,10.93
2022-08-24T18:31:28.818Z,11.48
2022-08-24T18:33:56.924Z,13.40
2022-08-24T18:36:24.959Z,11.50
2022-08-24T18:38:53.202Z,15.80
2022-08-24T18:41:27.232Z,15.00
2022-08-24T18:43:55.449Z,14.55
2022-08-24T18:46:23.830Z,14.35
2022-08-24T18:48:51.875Z,13.38
2022-08-24T18:51:21.748Z,15.77
2022-08-24T18:53:50.219Z,15.77
2022-08-24T18:56:19.982Z,15.32
2022-08-24T18:58:49.480Z,15.23
2022-08-24T19:01:17.848Z,15.15
2022-08-24T19:03:46.056Z,13.10
2022-08-24T19:06:14.113Z,10.65
2022-08-24T19:08:42.180Z,15.88
2022-08-24T19:11:11.431Z,15.27
2022-08-24T19:13:39.952Z,9.38
2022-08-24T19:16:09.507Z,11.77
2022-08-24T19:18:37.881Z,12.20
2022-08-24T19:21:05.960Z,11.02
2022-08-24T19:23:36.112Z,11.65
2022-08-24T19:26:05.231Z,16.25
2022-08-24T19:28:33.625Z,11.65
2022-08-24T19:31:03.984Z,13.57
2022-08-24T19:33:38.024Z,11.73
2022-08-24T19:36:06.900Z,16.77
2022-08-24T19:38:35.407Z,12.30
2022-08-24T19:41:11.724Z,12.80
2022-08-24T19:44:00.993Z,18.30
2022-08-24T19:46:28.207Z,10.77
2022-08-24T19:48:57.684Z,14.70
2022-08-24T19:51:26.681Z,15.05
2022-08-24T19:53:54.798Z,11.93
2022-08-24T19:56:23.724Z,15.45
2022-08-24T19:58:54.569Z,14.70
2022-08-24T20:01:24.956Z,13.10
2022-08-24T20:03:53.748Z,11.23
2022-08-24T20:06:24.993Z,12.50
2022-08-24T20:08:53.728Z,13.38
2022-08-24T20:11:24.920Z,11.52
2022-08-24T20:13:54.045Z,9.68
2022-08-24T20:16:24.053Z,16.60
2022-08-24T20:18:52.235Z,10.68
2022-08-24T20:21:20.319Z,12.75
2022-08-24T20:23:49.735Z,10.05
2022-08-24T20:26:17.790Z,12.68
2022-08-24T20:28:49.099Z,14.13
2022-08-24T20:31:18.437Z,12.52
2022-08-24T20:33:46.759Z,14.13
2022-08-24T20:36:24.176Z,11.05
2022-08-24T20:38:56.593Z,12.20
2022-08-24T20:41:27.368Z,12.23
2022-08-24T20:43:55.619Z,16.20
2022-08-24T20:46:24.009Z,14.75
2022-08-24T20:48:55.905Z,15.02
2022-08-24T20:51:24.390Z,8.82
2022-08-24T20:53:53.915Z,10.88
2022-08-24T20:56:31.360Z,10.52
2022-08-24T20:59:01.651Z,11.23
2022-08-24T21:01:30.015Z,12.38
2022-08-24T21:04:02.851Z,11.35
2022-08-24T21:06:34.243Z,11.50
2022-08-24T21:09:05.413Z,13.63
2022-08-24T21:11:33.979Z,15.40
2022-08-24T21:14:06.069Z,11.07
2022-08-24T21:16:35.905Z,14.05
2022-08-24T21:19:04.034Z,10.20
2022-08-24T21:21:33.552Z,8.43
2022-08-24T21:24:04.716Z,9.52
2022-08-24T21:26:34.245Z,12.52
2022-08-24T21:29:04.835Z,8.85
2022-08-24T21:31:32.925Z,14.32
2022-08-24T21:34:18.291Z,13.68
2022-08-24T21:36:48.440Z,11.57
2022-08-24T21:39:18.058Z,9.95
2022-08-24T21:41:46.395Z,11.07
2022-08-24T21:44:14.572Z,10.82
2022-08-24T21:46:43.496Z,10.68
2022-08-24T21:49:12.326Z,10.65
2022-08-24T21:51:40.660Z,12.95
2022-08-24T21:54:09.515Z,11.52
2022-08-24T21:56:39.176Z,11.65
2022-08-24T21:59:07.491Z,12.30
2022-08-24T22:01:35.639Z,8.75
2022-08-24T22:04:04.071Z,10.20
2022-08-24T22:06:32.797Z,8.15
2022-08-24T22:09:01.616Z,8.20
2022-08-24T22:11:30.346Z,10.77
2022-08-24T22:14:00.152Z,11.57
2022-08-24T22:16:28.281Z,12.27
2022-08-24T22:18:56.366Z,10.57
2022-08-24T22:21:29.339Z,10.93
2022-08-24T22:23:57.964Z,10.88
2022-08-24T22:26:27.225Z,8.40
2022-08-24T22:28:56.730Z,11.18
2022-08-24T22:31:29.031Z,9.40
2022-08-24T22:34:00.056Z,8.70
2022-08-24T22:36:30.101Z,6.78
2022-08-24T22:38:59.791Z,7.63
2022-08-24T22:41:28.317Z,9.07
2022-08-24T22:44:15.473Z,8.90
2022-08-24T22:46:45.059Z,7.32
2022-08-24T22:49:14.044Z,9.10
2022-08-24T22:51:42.468Z,11.40
2022-08-24T22:54:11.331Z,9.80
2022-08-24T22:56:42.096Z,8.88
2022-08-24T22:59:14.521Z,7.55
2022-08-24T23:01:46.226Z,8.65
2022-08-24T23:04:17.107Z,7.95
2022-08-24T23:06:45.387Z,11.35
2022-08-24T23:09:13.470Z,8.90
2022-08-24T23:11:41.850Z,10.40
2022-08-24T23:14:11.623Z,8.27
2022-08-24T23:16:44.569Z,11.02
2022-08-24T23:19:31.964Z,9.25
2022-08-24T23:22:00.062Z,11.07
2022-08-24T23:24:28.675Z,11.93
2022-08-24T23:26:57.272Z,9.98
2022-08-24T23:29:25.644Z,12.43
2022-08-24T23:31:53.937Z,7.13
2022-08-24T23:34:23.914Z,8.95
2022-08-24T23:36:52.214Z,8.35
2022-08-24T23:39:21.287Z,10.75
2022-08-24T23:41:50.920Z,7.57
2022-08-24T23:44:21.144Z,8.77
2022-08-24T23:46:49.482Z,9.10
2022-08-24T23:49:20.542Z,7.55
2022-08-24T23:51:50.911Z,8.10
2022-08-24T23:54:21.371Z,10.93
2022-08-24T23:56:51.437Z,9.93
2022-08-24T23:59:21.328Z,10.50
